Flight Track Log - Related Links

Times and Time Zones

All times are in EDT time to prevent confusion due to time zone crossing. See the UAL3832 flight status page for this flight to view local times or setup timezone preferences in your user account.

Time Position Orientation Groundspeed Altitude Reporting Facility
EDT Latitude Longitude Course Direction KTS MPH feet Rate Location/Type
Sat 11:39:24 AM 40.7333 -74.1333 43° Northeast 185 213 2,000  Level New York TRACON
Sat 11:41:32 AM 40.8306 -74.0144 43° Northeast 243 280 6,700 2,234 Climbing Boston Center
Sat 11:42:32 AM 40.8692 -73.9331 58° Northeast 243 280 9,000 1,800 Climbing Boston Center
Sat 11:43:32 AM 40.9119 -73.8517 55° Northeast 254 292 10,300 1,700 Climbing Boston Center
Sat 11:44:32 AM 40.9567 -73.7619 57° Northeast 275 316 12,400 2,200 Climbing Boston Center
Sat 11:45:32 AM 41.0325 -73.6947 34° Northeast 287 330 14,700 1,950 Climbing Boston Center
Sat 11:46:32 AM 41.1042 -73.6328 33° Northeast 299 344 16,300 1,600 Climbing Boston Center
Sat 11:47:32 AM 41.1756 -73.5736 32° Northeast 306 352 17,900 1,350 Climbing Boston Center
Sat 11:48:32 AM 41.2511 -73.5086 33° Northeast 311 358 19,000 1,100 Climbing Boston Center
Sat 11:49:32 AM 41.3247 -73.4489 31° Northeast 324 373 20,100 1,200 Climbing Boston Center
Sat 11:50:32 AM 41.4022 -73.3839 32° Northeast 324 373 21,400 1,250 Climbing Boston Center
Sat 11:51:32 AM 41.4822 -73.3128 34° Northeast 330 380 22,600 800 Climbing Boston Center
Sat 11:52:32 AM 41.5536 -73.2139 46° Northeast 330 380 23,000 200 Climbing Boston Center
Sat 11:53:32 AM 41.6292 -73.1289 40° Northeast 336 387 23,000  Level Boston Center
Sat 11:54:32 AM 41.7294 -73.1244 North 337 388 23,000  Level Boston Center
Sat 11:55:32 AM 41.8333 -73.1422 353° North 343 395 23,000  Level Boston Center
Sat 11:56:32 AM 41.9333 -73.1600 352° North 354 407 23,000  Level Boston Center
Sat 11:57:32 AM 42.0394 -73.1781 353° North 369 425 23,000  Level Boston Center
Sat 11:58:32 AM 42.1417 -73.1961 353° North 369 425 23,000  Level Boston Center
Sat 11:59:32 AM 42.2436 -73.2142 353° North 369 425 23,000  Level Boston Center
Sat 12:00:32 PM 42.3497 -73.2211 357° North 369 425 23,000  Level Boston Center
Sat 12:01:32 PM 42.4539 -73.2450 350° North 374 430 23,000  Level Boston Center
Sat 12:02:44 PM 42.5581 -73.2575 355° North 374 430 23,000  Level Boston Center
Sat 12:03:44 PM 42.6828 -73.2931 348° North 374 430 23,000  Level Boston Center
Sat 12:04:44 PM 42.7889 -73.3114 353° North 374 430 23,000  Level Boston Center
Sat 12:05:44 PM 42.8908 -73.3269 354° North 374 430 23,000  Level Boston Center
Sat 12:06:44 PM 42.9969 -73.3486 352° North 374 430 23,000  Level Boston Center
Sat 12:07:44 PM 43.0908 -73.3556 357° North 374 430 23,000  Level Boston Center
Sat 12:08:44 PM 43.2031 -73.3658 356° North 364 419 23,000  Level Boston Center
Sat 12:09:44 PM 43.3072 -73.3789 355° North 364 419 23,000  Level Boston Center
Sat 12:10:44 PM 43.4114 -73.3861 357° North 370 426 23,000  Level Boston Center
Sat 12:11:44 PM 43.5156 -73.3992 355° North 370 426 23,000  Level Boston Center
Sat 12:12:44 PM 43.6217 -73.4094 356° North 370 426 23,000  Level Boston Center
Sat 12:13:44 PM 43.7278 -73.4228 355° North 370 426 23,000  Level Boston Center
Sat 12:14:44 PM 43.8342 -73.4331 356° North 378 435 23,000  Level Boston Center
Sat 12:15:44 PM 43.9403 -73.4433 356° North 378 435 23,000  Level Boston Center
Sat 12:16:44 PM 44.0444 -73.4539 356° North 383 441 23,000  Level Boston Center
Sat 12:17:44 PM 44.1506 -73.4644 356° North 383 441 23,000  Level Boston Center
Sat 12:18:44 PM 44.2567 -73.4778 355° North 383 441 23,000  Level Boston Center
Sat 12:19:44 PM 44.3608 -73.4883 356° North 383 441 23,000 -500 Level Boston Center
Sat 12:20:44 PM 44.4669 -73.5017 355° North 383 441 22,000 -1,250 Descending Boston Center
Sat 12:21:44 PM 44.5708 -73.5125 356° North 383 441 20,500 -1,600 Descending Boston Center
Sat 12:22:44 PM 44.6708 -73.5231 356° North 373 429 18,800 -1,600 Descending Boston Center
Sat 12:23:44 PM 44.7728 -73.5336 356° North 368 423 17,300 -1,750 Descending Boston Center
Sat 12:24:44 PM 44.8728 -73.5444 356° North 362 417 15,300 -2,124 Descending Boston Center
Sat 12:25:37 PM 44.9500 -73.5333 North 350 403 13,300 -2,177 Descending Montreal Center
Sat 12:26:37 PM 45.0500 -73.5667 347° North 340 391 11,200 -1,600 Descending Montreal Center
Sat 12:27:37 PM 45.1000 -73.6500 310° West 300 345 10,100 -1,500 Descending Montreal Center
Sat 12:28:37 PM 45.1500 -73.7333 310° West 270 311 8,200 -2,000 Descending Montreal Center
Sat 12:29:37 PM 45.2000 -73.8000 317° Northwest 270 311 6,100 -2,000 Descending Montreal Center
Sat 12:30:37 PM 45.2500 -73.8667 317° Northwest 260 299 4,200 -1,550 Descending Montreal Center
Sat 12:31:37 PM 45.3167 -73.9000 341° North 220 253 3,000 -850 Descending Montreal Center
Sat 12:32:37 PM 45.3667 -73.8667 25° Northeast 200 230 2,500 -750 Descending Montreal Center
Sat 12:33:37 PM 45.4000 -73.8167 46° Northeast 190 219 1,500 -950 Descending Montreal Center
Sat 12:34:37 PM 45.4333 -73.7667 46° Northeast 140 161 600 -700 Descending Montreal Center
Sat 12:35:37 PM 45.4500 -73.7500 35° Northeast 140 161 100 -250 Descending Montreal Center
Sat 12:36:37 PM 45.4667 -73.7167 55° Northeast 20 23 100  Level Montreal Center

Login

Don't have an account? Register now (free) for customized features, flight alerts, and more!